Time;durP1;ratioP1;P1;durP2;ratioP2;P2;SDS_P1;SDS_P2;PMS_P1;PMS_P2;Temp;Humidity;BMP_temperature;BMP_pressure;BME280_temperature;BME280_humidity;BME280_pressure;Samples;Min_cycle;Max_cycle;Signal;HPM_P1;HPM_P2
2022/05/22 00:01:50;;;;;;;5.18;2.60;;;16.80;99.90;;;;;;5066523;28;20224;-76
2022/05/22 00:04:17;;;;;;;4.15;2.33;;;16.70;99.90;;;;;;5067880;28;20188;-76
2022/05/22 00:06:48;;;;;;;4.15;2.00;;;16.60;99.90;;;;;;5066299;28;20213;-76
2022/05/22 00:09:14;;;;;;;4.38;2.17;;;16.70;99.90;;;;;;5067428;28;20186;-76
2022/05/22 00:11:42;;;;;;;3.75;2.15;;;16.60;99.90;;;;;;5068090;28;20224;-75
2022/05/22 00:14:11;;;;;;;3.40;2.22;;;16.50;99.90;;;;;;5030772;28;20217;-76
2022/05/22 00:16:46;;;;;;;3.40;1.95;;;16.50;99.90;;;;;;5061862;28;20210;-75
2022/05/22 00:19:16;;;;;;;3.47;2.30;;;16.50;99.90;;;;;;5059815;28;20170;-75
2022/05/22 00:21:42;;;;;;;4.38;2.40;;;16.40;99.90;;;;;;5048446;28;20155;-76
2022/05/22 00:24:09;;;;;;;3.65;2.05;;;16.40;99.90;;;;;;5065017;28;20184;-77
2022/05/22 00:26:40;;;;;;;2.53;2.03;;;16.40;99.90;;;;;;5067590;28;20173;-75
2022/05/22 00:29:08;;;;;;;2.88;2.00;;;16.40;99.90;;;;;;5067917;28;20189;-75
2022/05/22 00:31:35;;;;;;;3.90;2.20;;;16.30;99.90;;;;;;5034377;28;20182;-75
2022/05/22 00:34:00;;;;;;;4.60;2.15;;;16.30;99.90;;;;;;5067916;28;20284;-74
2022/05/22 00:36:26;;;;;;;4.60;2.30;;;16.30;99.90;;;;;;5064524;28;20344;-77
2022/05/22 00:38:54;;;;;;;2.40;1.90;;;16.20;99.90;;;;;;5058037;28;21904;-78
2022/05/22 00:41:20;;;;;;;4.43;2.13;;;16.20;99.90;;;;;;5066516;28;20224;-77
2022/05/22 00:43:48;;;;;;;4.72;2.20;;;16.20;99.90;;;;;;5067028;28;20263;-78
2022/05/22 00:46:21;;;;;;;3.50;1.80;;;16.20;99.90;;;;;;5041696;28;20277;-79
2022/05/22 00:48:50;;;;;;;4.28;2.35;;;16.10;99.90;;;;;;5066056;28;20225;-78
2022/05/22 00:51:27;;;;;;;3.20;1.92;;;16.10;99.90;;;;;;5064236;28;20193;-77
2022/05/22 00:54:00;;;;;;;4.35;1.88;;;16.10;99.90;;;;;;5067242;28;20185;-77
2022/05/22 00:56:34;;;;;;;3.13;1.90;;;16.10;99.90;;;;;;5023943;28;20198;-78
2022/05/22 00:59:09;;;;;;;2.90;1.80;;;16.10;99.90;;;;;;5033808;28;20182;-78
2022/05/22 01:01:36;;;;;;;2.65;1.80;;;16.00;99.90;;;;;;5060446;28;20177;-78
2022/05/22 01:04:08;;;;;;;4.05;2.00;;;16.00;99.90;;;;;;5043044;28;20265;-74
2022/05/22 01:06:34;;;;;;;5.28;1.90;;;15.90;99.90;;;;;;5067533;28;20182;-72
2022/05/22 01:08:59;;;;;;;3.30;1.98;;;15.80;99.90;;;;;;5033852;28;20228;-75
2022/05/22 01:11:28;;;;;;;2.35;1.55;;;15.90;99.90;;;;;;5062254;28;20179;-74
2022/05/22 01:14:05;;;;;;;3.08;1.98;;;15.80;99.90;;;;;;5059909;28;20189;-76
2022/05/22 01:16:32;;;;;;;3.90;1.60;;;15.70;99.90;;;;;;5024325;28;20249;-75
2022/05/22 01:18:58;;;;;;;2.53;1.80;;;15.70;99.90;;;;;;5033862;28;20273;-74
2022/05/22 01:21:30;;;;;;;2.85;1.80;;;15.70;99.90;;;;;;5063175;28;20257;-75
2022/05/22 01:23:58;;;;;;;2.08;1.63;;;15.70;99.90;;;;;;5065942;28;20198;-78
2022/05/22 01:26:29;;;;;;;3.70;1.80;;;15.60;99.90;;;;;;5033061;28;20185;-78
2022/05/22 01:28:54;;;;;;;3.83;2.17;;;15.60;99.90;;;;;;5067664;28;20173;-77
2022/05/22 01:31:20;;;;;;;3.05;1.65;;;15.60;99.90;;;;;;5030974;28;20208;-77
2022/05/22 01:33:46;;;;;;;2.35;1.50;;;15.50;99.90;;;;;;5037222;28;20189;-78
2022/05/22 01:36:14;;;;;;;3.53;1.60;;;15.50;99.90;;;;;;5070848;28;20243;-77
2022/05/22 01:38:40;;;;;;;3.25;1.40;;;15.50;99.90;;;;;;5071126;28;20193;-78
2022/05/22 01:41:05;;;;;;;4.47;1.40;;;15.40;99.90;;;;;;5070158;28;20178;-74
2022/05/22 01:43:36;;;;;;;2.17;1.42;;;15.40;99.90;;;;;;5069995;28;20178;-76
2022/05/22 01:46:02;;;;;;;2.60;1.38;;;15.30;99.90;;;;;;5069098;28;20268;-74
2022/05/22 01:48:30;;;;;;;3.35;1.50;;;15.20;99.90;;;;;;5027163;28;20232;-75
2022/05/22 01:50:56;;;;;;;3.88;1.70;;;15.20;99.90;;;;;;5037993;28;20182;-75
2022/05/22 01:53:24;;;;;;;1.98;1.35;;;15.20;99.90;;;;;;5037730;28;20182;-76
2022/05/22 01:55:52;;;;;;;4.10;1.77;;;15.20;99.90;;;;;;5070040;28;20292;-74
2022/05/22 01:58:18;;;;;;;3.88;1.60;;;15.10;99.90;;;;;;5070390;28;20170;-78
2022/05/22 02:00:46;;;;;;;2.75;1.48;;;15.10;99.90;;;;;;5069799;28;20261;-78
2022/05/22 02:03:12;;;;;;;2.58;1.48;;;15.10;99.90;;;;;;5063190;28;20235;-78
2022/05/22 02:05:43;;;;;;;4.40;1.60;;;15.00;99.90;;;;;;5070960;28;20181;-74
2022/05/22 02:08:24;;;;;;;1.88;1.30;;;15.00;99.90;;;;;;5070654;28;20178;-77
2022/05/22 02:11:02;;;;;;;1.88;1.38;;;15.00;99.90;;;;;;5071240;28;20264;-77
2022/05/22 02:13:34;;;;;;;2.15;1.40;;;14.90;99.90;;;;;;5061081;28;20231;-77
2022/05/22 02:16:02;;;;;;;2.88;1.48;;;14.90;99.90;;;;;;5067224;28;20212;-77
2022/05/22 02:18:31;;;;;;;3.00;1.58;;;14.90;99.90;;;;;;5033461;28;20174;-76
2022/05/22 02:20:57;;;;;;;3.67;1.38;;;15.00;99.90;;;;;;5037209;28;20197;-76
2022/05/22 02:23:26;;;;;;;4.10;1.52;;;15.00;99.90;;;;;;5036860;28;20204;-82
2022/05/22 02:25:54;;;;;;;2.38;1.50;;;15.00;99.90;;;;;;5057234;28;20205;-80
2022/05/22 02:28:21;;;;;;;3.00;1.30;;;15.10;99.90;;;;;;5050965;28;20210;-82
2022/05/22 02:30:57;;;;;;;3.65;1.85;;;15.10;99.90;;;;;;5068981;28;20182;-81
2022/05/22 02:33:23;;;;;;;2.25;1.30;;;15.20;99.90;;;;;;5036272;28;20184;-79
2022/05/22 02:35:51;;;;;;;2.65;1.33;;;15.20;99.90;;;;;;5069993;28;20260;-81
2022/05/22 02:38:17;;;;;;;2.38;1.63;;;15.20;99.90;;;;;;5069812;28;20170;-82
2022/05/22 02:40:46;;;;;;;3.47;1.40;;;15.20;99.90;;;;;;5036844;28;20186;-76
2022/05/22 02:43:14;;;;;;;2.40;1.60;;;15.20;99.90;;;;;;5065953;28;20170;-82
2022/05/22 02:45:41;;;;;;;1.95;1.23;;;15.20;99.90;;;;;;5067782;28;20177;-82
2022/05/22 02:48:10;;;;;;;2.92;1.30;;;15.20;99.90;;;;;;5032161;28;20195;-78
2022/05/22 02:50:39;;;;;;;2.03;1.50;;;15.20;99.90;;;;;;5056770;28;20188;-82
2022/05/22 02:53:09;;;;;;;1.70;1.38;;;15.20;99.90;;;;;;5066936;28;20228;-78
2022/05/22 02:55:37;;;;;;;1.80;1.35;;;15.10;99.90;;;;;;5066551;28;20286;-82
2022/05/22 02:58:02;;;;;;;3.03;1.60;;;15.10;99.90;;;;;;5035273;28;20212;-79
2022/05/22 03:00:33;;;;;;;2.10;1.42;;;15.10;99.90;;;;;;5068805;28;20217;-81
2022/05/22 03:02:59;;;;;;;3.67;1.70;;;15.10;99.90;;;;;;5049928;28;20199;-80
2022/05/22 03:05:26;;;;;;;2.00;1.50;;;15.10;99.90;;;;;;5068439;28;20173;-82
2022/05/22 03:07:53;;;;;;;2.30;1.60;;;15.10;99.90;;;;;;5067430;28;20188;-83
2022/05/22 03:10:24;;;;;;;2.45;1.50;;;15.10;99.90;;;;;;5069363;28;20202;-82
2022/05/22 03:12:50;;;;;;;1.63;1.40;;;15.10;99.90;;;;;;5022485;28;20182;-82
2022/05/22 03:15:16;;;;;;;2.55;1.50;;;15.00;99.90;;;;;;5061845;28;20216;-81
2022/05/22 03:17:46;;;;;;;1.70;1.42;;;15.00;99.90;;;;;;5055223;28;20194;-81
2022/05/22 03:20:12;;;;;;;2.75;1.35;;;15.00;99.90;;;;;;5035582;28;20174;-80
2022/05/22 03:22:40;;;;;;;2.20;1.38;;;14.90;99.90;;;;;;5064744;28;20182;-79
2022/05/22 03:25:07;;;;;;;5.93;1.67;;;14.90;99.90;;;;;;5050785;28;20254;-71
2022/05/22 03:27:32;;;;;;;2.53;1.50;;;14.90;99.90;;;;;;5054930;28;20189;-68
2022/05/22 03:30:00;;;;;;;2.65;1.60;;;14.80;99.90;;;;;;5090485;28;20197;-67
2022/05/22 03:32:26;;;;;;;1.70;1.30;;;14.80;99.90;;;;;;5072882;28;20194;-83
2022/05/22 03:34:52;;;;;;;2.00;1.60;;;14.80;99.90;;;;;;5034123;28;20465;-80
2022/05/22 03:37:20;;;;;;;2.45;1.63;;;14.70;99.90;;;;;;5048341;28;20190;-82
2022/05/22 03:39:45;;;;;;;3.25;1.42;;;14.70;99.90;;;;;;5034814;28;20286;-79
2022/05/22 03:42:13;;;;;;;2.67;1.50;;;14.70;99.90;;;;;;5061615;28;20385;-83
2022/05/22 03:44:39;;;;;;;2.88;1.60;;;14.60;99.90;;;;;;5067321;28;20202;-77
2022/05/22 03:47:05;;;;;;;2.35;1.67;;;14.60;99.90;;;;;;5066546;28;20181;-81
2022/05/22 03:49:32;;;;;;;2.53;1.50;;;14.60;99.90;;;;;;5035372;28;20173;-78
2022/05/22 03:51:57;;;;;;;2.47;1.67;;;14.60;99.90;;;;;;5065957;28;20209;-83
2022/05/22 03:54:25;;;;;;;2.63;1.50;;;14.60;99.90;;;;;;5043110;28;20185;-82
2022/05/22 03:56:51;;;;;;;2.83;1.40;;;14.50;99.90;;;;;;5042307;28;20321;-82
2022/05/22 03:59:17;;;;;;;2.85;1.52;;;14.50;99.90;;;;;;5064972;28;20251;-79
2022/05/22 04:01:44;;;;;;;2.30;1.35;;;14.50;99.90;;;;;;5056882;28;20222;-80
2022/05/22 04:04:10;;;;;;;2.45;1.63;;;14.50;99.90;;;;;;5059259;28;20174;-83
2022/05/22 04:06:38;;;;;;;2.15;1.48;;;14.50;99.90;;;;;;5054724;28;20212;-82
2022/05/22 04:09:06;;;;;;;3.22;1.70;;;14.40;99.90;;;;;;5061699;28;20185;-82
2022/05/22 04:11:32;;;;;;;3.15;1.40;;;14.40;99.90;;;;;;5056507;28;20224;-83
2022/05/22 04:13:59;;;;;;;2.40;1.88;;;14.40;99.90;;;;;;5059703;28;20206;-81
2022/05/22 04:16:25;;;;;;;2.58;1.40;;;14.50;99.90;;;;;;5034490;28;20240;-79
2022/05/22 04:18:53;;;;;;;3.00;1.70;;;14.40;99.90;;;;;;5067802;28;20208;-82
2022/05/22 04:21:21;;;;;;;2.72;1.65;;;14.40;99.90;;;;;;5035073;28;20193;-83
2022/05/22 04:26:31;;;;;;;2.50;1.67;;;14.40;99.90;;;;;;5035467;28;20200;-82
2022/05/22 04:28:57;;;;;;;3.00;1.80;;;14.40;99.90;;;;;;5068238;28;20174;-81
2022/05/22 04:31:23;;;;;;;2.90;1.92;;;14.40;99.90;;;;;;5058296;28;20189;-78
2022/05/22 04:33:48;;;;;;;3.45;2.33;;;14.40;99.90;;;;;;5034217;28;20173;-80
2022/05/22 04:36:14;;;;;;;3.38;2.17;;;14.40;99.90;;;;;;5049990;28;20204;-82
2022/05/22 04:38:40;;;;;;;2.58;2.28;;;14.50;99.90;;;;;;5070250;28;20185;-82
2022/05/22 04:41:07;;;;;;;3.10;2.00;;;14.50;99.90;;;;;;5067267;28;20205;-82
2022/05/22 04:43:33;;;;;;;3.45;1.85;;;14.60;99.90;;;;;;5037500;28;20178;-83
2022/05/22 04:46:07;;;;;;;2.35;1.80;;;14.60;99.90;;;;;;5034455;28;20189;-83
2022/05/22 04:48:32;;;;;;;1.85;1.70;;;14.60;99.90;;;;;;5065995;28;20209;-82
2022/05/22 04:50:58;;;;;;;3.85;2.40;;;14.60;99.90;;;;;;5061817;28;20173;-82
2022/05/22 04:53:26;;;;;;;2.53;1.95;;;14.60;99.90;;;;;;5067574;28;20184;-82
2022/05/22 04:55:51;;;;;;;4.78;2.17;;;14.60;99.90;;;;;;5053734;28;20213;-83
2022/05/22 04:58:18;;;;;;;3.08;2.00;;;14.70;99.90;;;;;;5056781;28;20217;-81
2022/05/22 05:00:44;;;;;;;3.38;2.00;;;14.70;99.90;;;;;;5064406;28;20227;-81
2022/05/22 05:03:10;;;;;;;2.67;1.65;;;14.70;99.90;;;;;;5068351;28;20166;-80
2022/05/22 05:05:37;;;;;;;2.13;1.70;;;14.70;99.90;;;;;;5060212;28;20197;-81
2022/05/22 05:08:03;;;;;;;3.80;2.38;;;14.80;99.90;;;;;;5067252;28;20190;-82
2022/05/22 05:10:30;;;;;;;14.18;9.10;;;14.80;99.90;;;;;;5036598;28;20181;-83
2022/05/22 05:13:00;;;;;;;7.82;6.45;;;14.80;99.90;;;;;;5033809;28;20233;-78
2022/05/22 05:15:26;;;;;;;5.43;4.20;;;14.80;99.90;;;;;;5047534;28;20207;-81
2022/05/22 05:17:51;;;;;;;3.70;2.78;;;14.80;99.90;;;;;;5051781;28;20274;-83
2022/05/22 05:20:23;;;;;;;3.65;2.55;;;14.90;99.90;;;;;;5054138;28;20205;-79
2022/05/22 05:22:53;;;;;;;3.67;2.58;;;14.90;99.90;;;;;;5033743;28;20174;-82
2022/05/22 05:25:19;;;;;;;4.70;2.20;;;14.90;99.90;;;;;;5066979;28;20377;-83
2022/05/22 05:27:45;;;;;;;2.25;1.88;;;14.90;99.90;;;;;;5065006;28;20261;-83
2022/05/22 05:30:13;;;;;;;3.80;2.20;;;14.90;99.90;;;;;;5066610;28;20219;-84
2022/05/22 05:32:39;;;;;;;3.78;2.03;;;14.90;99.90;;;;;;5060680;28;20173;-83
2022/05/22 05:35:09;;;;;;;2.17;1.70;;;15.00;99.90;;;;;;5060347;28;20198;-82
2022/05/22 05:37:40;;;;;;;3.83;1.98;;;15.00;99.90;;;;;;5032599;28;20230;-84
2022/05/22 05:40:09;;;;;;;3.90;2.40;;;15.00;99.90;;;;;;5067035;28;20236;-83
2022/05/22 05:42:36;;;;;;;4.15;2.20;;;15.10;99.90;;;;;;5066269;28;20213;-82
2022/05/22 05:45:08;;;;;;;2.67;2.10;;;15.10;99.90;;;;;;5030419;28;20229;-83
2022/05/22 05:47:33;;;;;;;2.83;2.20;;;15.20;99.90;;;;;;5047457;28;20155;-82
2022/05/22 05:50:01;;;;;;;6.15;2.20;;;15.30;99.90;;;;;;5050305;28;20170;-80
2022/05/22 05:52:27;;;;;;;2.70;2.22;;;15.30;99.90;;;;;;5030789;28;20175;-82
2022/05/22 05:54:53;;;;;;;2.65;2.10;;;15.40;99.90;;;;;;5053704;28;20201;-81
2022/05/22 05:57:21;;;;;;;3.20;2.13;;;15.50;99.90;;;;;;5066625;28;20210;-82
2022/05/22 05:59:47;;;;;;;2.67;2.03;;;15.50;99.90;;;;;;5047286;28;20182;-80
2022/05/22 06:02:14;;;;;;;5.93;2.03;;;15.50;99.90;;;;;;5058466;28;20174;-82
2022/05/22 06:04:42;;;;;;;3.08;1.95;;;15.60;99.90;;;;;;5033345;28;20185;-81
2022/05/22 06:07:09;;;;;;;4.95;2.50;;;15.70;99.90;;;;;;5056158;28;20253;-82
2022/05/22 06:09:36;;;;;;;2.40;2.00;;;15.70;99.90;;;;;;5059338;28;20177;-82
2022/05/22 06:12:05;;;;;;;2.42;1.83;;;15.80;99.90;;;;;;5033551;28;20198;-83
2022/05/22 06:14:30;;;;;;;3.33;2.30;;;15.80;99.90;;;;;;5064212;28;20182;-78
2022/05/22 06:16:56;;;;;;;2.17;1.80;;;15.90;99.90;;;;;;5066328;28;20198;-82
2022/05/22 06:22:09;;;;;;;2.55;1.77;;;15.90;99.90;;;;;;5032347;28;20185;-79
2022/05/22 06:24:36;;;;;;;3.15;1.70;;;16.00;99.90;;;;;;5053881;28;20266;-81
2022/05/22 06:27:07;;;;;;;2.67;1.65;;;16.00;99.90;;;;;;5036697;28;20212;-83
2022/05/22 06:29:32;;;;;;;3.40;1.65;;;16.10;99.90;;;;;;5066579;28;20182;-83
2022/05/22 06:31:58;;;;;;;2.55;1.60;;;16.10;99.90;;;;;;5070005;28;20198;-81
2022/05/22 06:34:24;;;;;;;3.20;1.88;;;16.10;99.90;;;;;;5070511;28;20174;-81
2022/05/22 06:36:53;;;;;;;2.53;1.88;;;16.20;99.90;;;;;;5064184;28;20209;-82
2022/05/22 06:42:15;;;;;;;2.88;2.00;;;16.20;99.90;;;;;;5037497;28;20260;-81
2022/05/22 06:44:41;;;;;;;2.97;2.30;;;16.30;99.90;;;;;;5070431;28;20209;-82
2022/05/22 06:47:10;;;;;;;2.90;2.15;;;16.30;99.90;;;;;;5055872;28;20182;-80
2022/05/22 06:49:38;;;;;;;3.25;2.20;;;16.40;99.90;;;;;;5036200;28;20217;-83
2022/05/22 06:52:08;;;;;;;4.72;2.20;;;16.40;99.90;;;;;;5068464;28;20194;-82
2022/05/22 06:54:39;;;;;;;4.22;2.15;;;16.50;99.90;;;;;;5069830;28;20205;-79
2022/05/22 06:57:09;;;;;;;2.85;2.10;;;16.50;99.90;;;;;;5068568;28;20197;-82
2022/05/22 06:59:39;;;;;;;3.60;1.98;;;16.60;99.90;;;;;;5070353;28;20170;-85
2022/05/22 07:02:09;;;;;;;2.55;1.90;;;16.60;99.90;;;;;;5071622;28;20179;-81
2022/05/22 07:04:35;;;;;;;3.35;2.13;;;16.70;99.90;;;;;;5081512;28;20201;-83
2022/05/22 07:07:01;;;;;;;2.92;1.73;;;16.80;99.90;;;;;;5041385;28;20185;-82
2022/05/22 07:09:27;;;;;;;4.25;2.08;;;16.90;99.90;;;;;;5039116;28;20178;-77
2022/05/22 07:11:55;;;;;;;2.28;1.63;;;17.00;99.90;;;;;;5064788;28;20197;-84
2022/05/22 07:14:23;;;;;;;2.45;1.85;;;17.10;99.90;;;;;;5052065;28;20218;-82
2022/05/22 07:16:49;;;;;;;2.92;2.00;;;17.20;99.90;;;;;;5035340;28;20275;-88
2022/05/22 07:19:17;;;;;;;4.05;1.80;;;17.20;99.90;;;;;;5070131;28;20181;-84
2022/05/22 07:21:45;;;;;;;3.45;1.90;;;17.20;99.90;;;;;;5070631;28;20182;-83
2022/05/22 07:24:10;;;;;;;3.67;1.83;;;17.30;99.90;;;;;;5070043;28;20197;-81
2022/05/22 07:26:36;;;;;;;5.57;1.65;;;17.40;99.90;;;;;;5037535;28;20173;-81
2022/05/22 07:29:02;;;;;;;3.30;1.60;;;17.50;99.90;;;;;;5036941;28;20185;-84
2022/05/22 07:31:28;;;;;;;2.95;1.75;;;17.50;99.90;;;;;;5068458;28;20251;-81
2022/05/22 07:33:58;;;;;;;5.40;2.10;;;17.60;99.90;;;;;;5037040;28;20435;-84
2022/05/22 07:36:25;;;;;;;5.30;1.50;;;17.70;99.90;;;;;;5070480;28;20209;-85
2022/05/22 07:38:51;;;;;;;4.28;1.67;;;17.80;99.90;;;;;;5064862;28;20213;-83
2022/05/22 07:41:17;;;;;;;1.95;1.70;;;17.90;99.90;;;;;;5037780;28;20178;-80
2022/05/22 07:43:45;;;;;;;2.75;1.77;;;18.00;99.90;;;;;;5070724;28;20181;-86
2022/05/22 07:46:13;;;;;;;2.75;1.75;;;18.10;99.90;;;;;;5040209;28;20186;-85
2022/05/22 07:48:41;;;;;;;1.83;1.40;;;18.10;99.90;;;;;;5045830;28;20239;-71
2022/05/22 07:51:11;;;;;;;3.28;1.80;;;18.30;99.90;;;;;;5057448;28;20178;-66
2022/05/22 07:53:37;;;;;;;10.32;6.78;;;18.30;99.90;;;;;;5089788;28;20162;-67
2022/05/22 07:56:03;;;;;;;5.78;3.10;;;18.40;99.90;;;;;;5057256;28;20203;-71
2022/05/22 07:58:30;;;;;;;3.58;2.63;;;18.50;99.90;;;;;;5056368;28;20213;-66
2022/05/22 08:00:59;;;;;;;3.90;2.70;;;18.60;99.90;;;;;;5056737;28;20174;-74
2022/05/22 08:03:25;;;;;;;5.22;2.80;;;18.70;99.90;;;;;;5086212;28;20159;-85
2022/05/22 08:05:55;;;;;;;5.65;2.60;;;18.90;99.90;;;;;;5058618;28;20217;-87
2022/05/22 08:08:21;;;;;;;4.43;2.05;;;19.00;99.90;;;;;;5042833;28;20236;-88
2022/05/22 08:10:53;;;;;;;3.28;2.03;;;19.00;99.90;;;;;;5070196;28;20185;-83
2022/05/22 08:13:19;;;;;;;3.10;1.77;;;19.10;99.90;;;;;;5037147;28;20193;-84
2022/05/22 08:15:45;;;;;;;4.38;2.63;;;19.20;99.90;;;;;;5069640;28;20229;-86
2022/05/22 08:18:13;;;;;;;3.78;2.35;;;19.20;99.90;;;;;;5036643;28;20193;-82
2022/05/22 08:20:43;;;;;;;3.92;1.80;;;19.30;99.90;;;;;;5035977;28;20173;-85
2022/05/22 08:23:22;;;;;;;2.70;1.60;;;19.40;99.90;;;;;;5065991;28;20174;-81
2022/05/22 08:25:48;;;;;;;3.63;1.50;;;19.40;99.90;;;;;;5052501;28;20275;-85
2022/05/22 08:28:15;;;;;;;4.40;1.77;;;19.50;99.90;;;;;;5036285;28;20224;-85
2022/05/22 08:30:44;;;;;;;2.95;1.40;;;19.60;99.90;;;;;;5036469;28;20245;-85
2022/05/22 08:33:10;;;;;;;2.85;1.40;;;19.60;99.90;;;;;;5069699;28;20233;-81
2022/05/22 08:35:43;;;;;;;2.38;1.60;;;19.70;99.90;;;;;;5076793;28;20181;-80
2022/05/22 08:38:10;;;;;;;4.28;1.63;;;19.80;99.90;;;;;;5086990;28;20181;-83
2022/05/22 08:40:44;;;;;;;2.33;1.58;;;19.80;99.90;;;;;;5038370;28;20184;-75
2022/05/22 08:43:14;;;;;;;2.47;1.50;;;19.90;99.90;;;;;;5032475;28;20198;-86
2022/05/22 08:45:46;;;;;;;3.00;1.77;;;20.00;99.90;;;;;;5057969;28;20252;-87
2022/05/22 08:48:41;;;;;;;3.35;1.70;;;20.00;99.90;;;;;;5056153;28;20175;-84
2022/05/22 08:51:16;;;;;;;2.97;1.60;;;20.20;99.90;;;;;;5048850;28;20190;-87
2022/05/22 08:53:52;;;;;;;2.33;1.35;;;20.30;99.90;;;;;;5063392;28;20201;-84
2022/05/22 08:59:20;;;;;;;4.20;1.75;;;20.40;99.90;;;;;;5035572;28;20213;-84
2022/05/22 09:02:04;;;;;;;3.10;1.98;;;20.50;99.90;;;;;;5035541;28;20174;-87
2022/05/22 09:05:05;;;;;;;4.35;1.90;;;20.60;99.90;;;;;;5036003;28;20178;-85
2022/05/22 09:07:34;;;;;;;2.95;1.55;;;20.70;99.90;;;;;;5012739;28;20199;-84
2022/05/22 09:10:11;;;;;;;2.78;1.40;;;20.80;99.90;;;;;;5036150;28;20174;-81
2022/05/22 09:12:55;;;;;;;4.47;1.48;;;20.90;99.90;;;;;;5015164;28;20167;-83
2022/05/22 09:15:31;;;;;;;4.03;1.90;;;21.00;99.90;;;;;;5050980;28;20216;-84
2022/05/22 09:18:06;;;;;;;2.33;1.38;;;21.10;99.90;;;;;;5034509;28;20173;-83
2022/05/22 09:20:58;;;;;;;3.85;1.80;;;21.20;99.90;;;;;;5034521;28;20193;-84
2022/05/22 09:23:48;;;;;;;2.13;1.25;;;21.30;99.90;;;;;;5050858;28;20216;-82
2022/05/22 09:26:38;;;;;;;2.10;1.30;;;21.40;99.90;;;;;;5035187;28;20280;-87
2022/05/22 09:29:13;;;;;;;4.28;1.80;;;21.50;99.90;;;;;;5067327;28;20232;-82
2022/05/22 09:31:55;;;;;;;2.92;1.40;;;21.60;99.90;;;;;;5050603;28;20185;-85
2022/05/22 09:34:35;;;;;;;2.85;1.70;;;21.70;99.90;;;;;;5051050;28;20174;-82
2022/05/22 09:37:38;;;;;;;3.78;2.10;;;21.80;99.90;;;;;;5050724;28;20351;-85
2022/05/22 09:40:26;;;;;;;4.00;2.10;;;21.90;99.90;;;;;;5049774;28;20249;-85
2022/05/22 09:43:25;;;;;;;3.13;1.75;;;21.90;99.90;;;;;;5031288;28;20193;-81
2022/05/22 09:46:12;;;;;;;2.67;1.38;;;21.90;99.90;;;;;;5038907;28;20201;-88
2022/05/22 09:48:57;;;;;;;5.78;1.80;;;22.00;99.90;;;;;;5067386;28;20178;-82
2022/05/22 09:51:28;;;;;;;4.13;1.73;;;22.20;99.90;;;;;;5030941;28;20199;-84
2022/05/22 09:54:28;;;;;;;3.17;1.60;;;22.30;99.90;;;;;;5041605;28;20340;-84
2022/05/22 09:57:09;;;;;;;3.88;1.48;;;22.40;99.90;;;;;;5038292;28;20202;-72
2022/05/22 09:59:56;;;;;;;2.55;1.55;;;22.50;99.90;;;;;;5054020;28;20166;-82
2022/05/22 10:02:46;;;;;;;3.17;1.90;;;22.50;99.90;;;;;;5034626;28;20194;-85
2022/05/22 10:05:40;;;;;;;2.60;1.30;;;22.60;99.90;;;;;;5050790;28;20230;-86
2022/05/22 10:08:31;;;;;;;5.55;1.45;;;22.60;99.90;;;;;;5056614;28;20186;-87
2022/05/22 10:11:22;;;;;;;3.78;1.70;;;22.70;99.90;;;;;;5037384;28;20193;-86
2022/05/22 10:14:08;;;;;;;3.35;1.60;;;22.70;99.90;;;;;;5037008;28;20190;-81
2022/05/22 10:17:12;;;;;;;2.28;1.50;;;22.70;99.90;;;;;;5039363;28;20209;-82
2022/05/22 10:19:56;;;;;;;2.55;1.48;;;22.70;99.90;;;;;;4999514;28;20185;-85
2022/05/22 10:23:03;;;;;;;3.03;1.45;;;22.80;99.90;;;;;;5032750;28;20224;-84
2022/05/22 10:25:51;;;;;;;2.63;1.55;;;22.80;99.90;;;;;;5044659;28;20232;-85
2022/05/22 10:28:18;;;;;;;2.13;1.40;;;23.00;99.90;;;;;;5045950;28;20188;-88
2022/05/22 10:31:00;;;;;;;2.80;1.52;;;23.10;99.90;;;;;;5053621;28;20182;-86
2022/05/22 10:33:32;;;;;;;3.30;1.70;;;23.40;99.90;;;;;;5071804;28;20213;-85
2022/05/22 10:36:12;;;;;;;2.22;1.33;;;23.70;99.90;;;;;;5037611;28;20204;-79
2022/05/22 10:38:49;;;;;;;2.03;1.20;;;24.00;99.90;;;;;;5070596;28;20174;-85
2022/05/22 10:44:23;;;;;;;2.20;0.90;;;24.50;99.90;;;;;;5037412;28;20200;-86
2022/05/22 10:46:52;;;;;;;1.30;1.00;;;24.60;99.90;;;;;;5069919;28;20186;-80
2022/05/22 10:49:21;;;;;;;2.75;0.88;;;24.70;99.90;;;;;;5053397;28;20237;-85
2022/05/22 10:51:58;;;;;;;2.53;1.00;;;24.80;99.90;;;;;;5016917;28;20209;-86
2022/05/22 10:54:30;;;;;;;1.73;1.00;;;25.00;99.90;;;;;;5062104;28;20288;-86
2022/05/22 10:57:27;;;;;;;1.45;0.98;;;25.20;99.90;;;;;;5069511;28;20210;-83
2022/05/22 10:59:56;;;;;;;2.75;1.30;;;25.30;99.90;;;;;;5070194;28;20158;-84
2022/05/22 11:02:23;;;;;;;2.10;0.90;;;25.50;99.90;;;;;;5052766;28;20202;-86
2022/05/22 11:04:51;;;;;;;1.73;0.98;;;25.60;99.90;;;;;;5030874;28;20198;-88
2022/05/22 11:07:32;;;;;;;1.90;1.10;;;25.70;99.90;;;;;;5062689;28;20223;-78
2022/05/22 11:10:29;;;;;;;2.10;1.20;;;25.80;99.90;;;;;;5034655;28;20268;-86
2022/05/22 11:13:07;;;;;;;2.20;1.13;;;25.80;99.90;;;;;;5036224;28;20178;-81
2022/05/22 11:15:42;;;;;;;2.22;1.25;;;25.80;99.90;;;;;;5036192;28;20224;-85
2022/05/22 11:18:21;;;;;;;2.47;1.10;;;25.90;99.90;;;;;;5069389;28;20170;-84
2022/05/22 11:21:10;;;;;;;1.92;1.10;;;25.90;99.90;;;;;;5069293;28;20177;-82
2022/05/22 11:23:36;;;;;;;1.98;0.90;;;26.10;99.90;;;;;;5032691;28;20203;-80
2022/05/22 11:26:08;;;;;;;1.90;1.02;;;26.10;99.90;;;;;;5064886;28;20200;-84
2022/05/22 11:28:56;;;;;;;3.13;1.10;;;26.20;99.90;;;;;;5022483;28;20204;-86
2022/05/22 11:31:46;;;;;;;3.00;1.35;;;26.30;99.90;;;;;;5040975;28;20223;-85
2022/05/22 11:34:47;;;;;;;2.00;1.00;;;26.40;99.90;;;;;;5032606;28;20364;-83
2022/05/22 11:37:16;;;;;;;1.05;0.80;;;26.50;99.90;;;;;;5049081;28;20198;-84
2022/05/22 11:40:01;;;;;;;1.63;0.93;;;26.70;99.90;;;;;;5041568;28;20207;-78
2022/05/22 11:42:35;;;;;;;1.73;1.05;;;26.80;99.90;;;;;;5033458;28;20175;-87
2022/05/22 11:45:22;;;;;;;2.67;1.10;;;27.00;99.90;;;;;;5064236;28;20186;-85
2022/05/22 11:48:20;;;;;;;2.40;1.00;;;27.10;99.90;;;;;;5052082;28;20205;-82
2022/05/22 11:51:14;;;;;;;1.17;0.80;;;27.30;99.90;;;;;;5031486;28;20174;-84
2022/05/22 11:54:18;;;;;;;1.67;1.02;;;27.40;99.90;;;;;;5034461;28;20198;-83
2022/05/22 11:57:05;;;;;;;3.05;1.20;;;27.50;99.90;;;;;;5065239;28;20202;-83
2022/05/22 11:59:47;;;;;;;2.08;1.10;;;27.70;99.90;;;;;;5049015;28;20190;-83
2022/05/22 12:02:24;;;;;;;1.85;1.10;;;27.70;99.90;;;;;;5032891;28;20435;-86
2022/05/22 12:05:29;;;;;;;2.85;1.20;;;27.80;99.90;;;;;;5031909;28;20185;-84
2022/05/22 12:08:19;;;;;;;1.80;1.10;;;27.90;98.80;;;;;;5045696;28;20275;-85
2022/05/22 12:10:55;;;;;;;1.45;1.00;;;27.90;99.90;;;;;;5042418;28;20257;-82
2022/05/22 12:13:29;;;;;;;3.08;1.67;;;28.00;99.90;;;;;;5033980;28;20213;-81
2022/05/22 12:16:15;;;;;;;2.58;1.40;;;28.10;99.90;;;;;;5042323;28;20201;-77
2022/05/22 12:19:05;;;;;;;2.30;2.10;;;28.20;99.90;;;;;;5056944;28;20258;-76
2022/05/22 12:21:55;;;;;;;2.03;1.25;;;28.30;99.90;;;;;;5062043;28;20216;-76
2022/05/22 12:24:59;;;;;;;2.25;1.35;;;28.40;99.90;;;;;;5052466;28;20248;-78
2022/05/22 12:27:34;;;;;;;6.10;1.25;;;28.50;99.90;;;;;;5024485;28;20226;-86
2022/05/22 12:30:07;;;;;;;2.92;1.40;;;28.60;99.90;;;;;;5059476;28;20184;-85
2022/05/22 12:32:51;;;;;;;3.05;1.50;;;28.60;99.90;;;;;;5046183;28;20185;-83
2022/05/22 12:35:18;;;;;;;1.95;1.60;;;28.60;98.30;;;;;;5050492;28;20200;-81
2022/05/22 12:37:49;;;;;;;2.88;1.70;;;28.60;99.90;;;;;;5059353;28;20180;-79
2022/05/22 12:40:34;;;;;;;2.72;1.48;;;28.70;99.90;;;;;;5067772;28;20244;-90
2022/05/22 12:43:05;;;;;;;1.70;1.30;;;28.70;99.90;;;;;;5052053;28;20203;-84
2022/05/22 12:45:37;;;;;;;2.92;1.17;;;28.80;99.90;;;;;;5058456;28;20182;-79
2022/05/22 12:48:25;;;;;;;2.20;1.10;;;28.90;99.90;;;;;;5067574;28;20200;-81
2022/05/22 12:51:18;;;;;;;2.10;1.05;;;29.00;97.10;;;;;;5023872;28;20247;-82
2022/05/22 12:53:49;;;;;;;3.15;1.40;;;29.10;84.10;;;;;;5029536;28;20221;-79
2022/05/22 12:56:31;;;;;;;1.50;1.10;;;29.10;97.50;;;;;;5032553;28;20277;-80
2022/05/22 12:59:16;;;;;;;3.90;1.27;;;29.10;96.20;;;;;;5040190;28;20208;-81
2022/05/22 13:01:45;;;;;;;1.95;1.30;;;29.10;97.70;;;;;;5028976;28;20174;-80
2022/05/22 13:04:20;;;;;;;3.22;1.20;;;29.20;99.90;;;;;;5055423;28;20290;-77
2022/05/22 13:06:51;;;;;;;2.40;1.20;;;29.20;95.90;;;;;;5040865;28;20201;-82
2022/05/22 13:09:31;;;;;;;2.35;1.17;;;29.20;98.50;;;;;;5055951;28;20194;-78
2022/05/22 13:12:06;;;;;;;2.10;1.38;;;29.30;95.60;;;;;;5040412;28;20197;-80
2022/05/22 13:14:44;;;;;;;1.58;1.20;;;29.30;96.40;;;;;;5050136;28;20205;-77
2022/05/22 13:17:15;;;;;;;2.30;1.30;;;29.40;92.50;;;;;;5033906;28;20201;-83
2022/05/22 13:19:55;;;;;;;1.90;1.10;;;29.50;95.90;;;;;;5066148;28;20288;-81
2022/05/22 13:22:30;;;;;;;2.20;1.00;;;29.60;92.40;;;;;;5055899;28;20174;-79
2022/05/22 13:25:02;;;;;;;2.22;1.40;;;29.60;93.10;;;;;;5037515;28;20197;-81
2022/05/22 13:27:30;;;;;;;1.88;1.20;;;29.70;95.40;;;;;;5047923;28;20187;-78
2022/05/22 13:30:04;;;;;;;1.42;0.95;;;29.70;92.70;;;;;;5048316;28;20178;-80